Time;durP1;ratioP1;P1;durP2;ratioP2;P2;SDS_P1;SDS_P2;PMS_P1;PMS_P2;Temp;Humidity;BMP_temperature;BMP_pressure;BME280_temperature;BME280_humidity;BME280_pressure;Samples;Min_cycle;Max_cycle;Signal;HPM_P1;HPM_P2
2022/10/26 00:00:10;;;;;;;24.90;16.25;;;21.70;58.00;;;;;;5014992;22;20057;-71
2022/10/26 00:02:42;;;;;;;26.70;15.95;;;21.70;58.00;;;;;;4987356;28;20053;-73
2022/10/26 00:05:08;;;;;;;24.30;15.13;;;21.70;58.10;;;;;;4988159;28;20030;-73
2022/10/26 00:07:34;;;;;;;21.52;13.70;;;21.70;58.00;;;;;;4988155;28;20479;-73
2022/10/26 00:10:00;;;;;;;20.65;12.80;;;21.80;58.20;;;;;;4977082;28;20104;-73
2022/10/26 00:12:25;;;;;;;19.77;12.35;;;21.80;58.20;;;;;;4968283;28;20445;-73
2022/10/26 00:14:51;;;;;;;21.77;12.38;;;21.80;58.20;;;;;;4968612;28;20031;-73
2022/10/26 00:17:17;;;;;;;21.83;12.77;;;21.70;58.30;;;;;;4967635;28;20377;-73
2022/10/26 00:19:42;;;;;;;22.30;11.77;;;21.80;58.20;;;;;;4968319;28;20385;-72
2022/10/26 00:22:08;;;;;;;20.52;11.38;;;21.80;58.40;;;;;;4967284;28;20038;-72
2022/10/26 00:24:34;;;;;;;18.92;10.25;;;21.80;58.50;;;;;;4968722;28;20035;-72
2022/10/26 00:26:59;;;;;;;17.92;10.38;;;21.80;58.40;;;;;;4968799;28;20030;-72
2022/10/26 00:29:25;;;;;;;15.35;8.63;;;21.80;58.40;;;;;;4966903;28;20481;-72
2022/10/26 00:31:51;;;;;;;20.83;9.35;;;21.80;58.30;;;;;;4967217;28;20478;-73
2022/10/26 00:34:17;;;;;;;17.58;9.70;;;21.70;58.40;;;;;;4967884;28;20067;-72
2022/10/26 00:36:42;;;;;;;16.55;8.70;;;21.80;58.40;;;;;;4968464;28;20026;-72
2022/10/26 00:39:12;;;;;;;16.17;9.10;;;21.80;58.40;;;;;;4968227;28;20022;-72
2022/10/26 00:41:38;;;;;;;16.73;8.23;;;21.80;58.50;;;;;;4968365;28;20039;-72
2022/10/26 00:44:41;;;;;;;15.13;7.50;;;21.80;58.50;;;;;;4967830;28;20484;-73
2022/10/26 00:47:10;;;;;;;15.35;7.45;;;21.80;58.50;;;;;;4968313;28;20035;-72
2022/10/26 00:49:37;;;;;;;11.93;6.65;;;21.70;58.30;;;;;;4965759;28;20084;-73
2022/10/26 00:52:04;;;;;;;15.98;7.13;;;21.70;58.30;;;;;;4965911;28;20054;-72
2022/10/26 00:54:30;;;;;;;13.98;7.00;;;21.80;58.40;;;;;;4964995;28;20563;-72
2022/10/26 00:56:56;;;;;;;14.18;7.35;;;21.80;58.50;;;;;;4965305;28;20114;-73
2022/10/26 00:59:23;;;;;;;12.98;6.50;;;21.70;58.30;;;;;;4966723;28;20938;-72
2022/10/26 01:01:49;;;;;;;15.43;6.40;;;21.70;58.30;;;;;;4966146;28;20070;-72
2022/10/26 01:04:15;;;;;;;13.13;6.38;;;21.80;58.50;;;;;;4964999;28;20035;-72
2022/10/26 01:06:42;;;;;;;11.20;6.20;;;21.70;58.30;;;;;;4999484;28;20025;-72
2022/10/26 01:09:09;;;;;;;10.25;5.90;;;21.80;58.40;;;;;;4967779;28;20076;-72
2022/10/26 01:11:35;;;;;;;14.30;5.85;;;21.80;58.40;;;;;;4966447;28;20056;-72
2022/10/26 01:14:04;;;;;;;11.80;5.53;;;21.80;58.30;;;;;;4965824;28;20488;-72
2022/10/26 01:16:56;;;;;;;13.02;5.70;;;21.80;58.40;;;;;;4968096;28;20027;-72
2022/10/26 01:19:22;;;;;;;11.50;5.57;;;21.80;58.30;;;;;;4966845;28;20042;-73
2022/10/26 01:22:05;;;;;;;13.68;5.65;;;21.80;58.30;;;;;;4968179;28;20034;-72
2022/10/26 01:24:46;;;;;;;9.48;4.88;;;21.80;58.30;;;;;;5044451;28;20023;-72
2022/10/26 01:27:33;;;;;;;10.68;5.40;;;21.80;58.20;;;;;;4966642;28;20023;-71
2022/10/26 01:30:13;;;;;;;9.65;4.57;;;21.70;58.20;;;;;;4966439;28;20035;-71
2022/10/26 01:33:04;;;;;;;8.75;4.57;;;21.80;58.30;;;;;;4967192;28;20046;-72
2022/10/26 01:36:07;;;;;;;9.55;4.90;;;21.70;58.20;;;;;;4967554;28;20031;-72
2022/10/26 01:38:50;;;;;;;8.75;4.03;;;21.70;58.10;;;;;;4967704;28;20484;-72
2022/10/26 01:41:34;;;;;;;9.13;4.70;;;21.70;58.20;;;;;;4967485;28;20093;-73
2022/10/26 01:44:23;;;;;;;10.07;5.07;;;21.70;58.20;;;;;;4949925;28;20061;-73
2022/10/26 01:46:53;;;;;;;16.13;4.50;;;21.70;58.10;;;;;;4976552;28;20046;-73
2022/10/26 01:49:26;;;;;;;19.77;4.80;;;21.70;58.20;;;;;;4967363;28;20114;-72
2022/10/26 01:51:52;;;;;;;12.68;4.88;;;21.70;58.10;;;;;;4966901;28;20039;-73
2022/10/26 01:54:18;;;;;;;7.43;3.97;;;21.70;58.00;;;;;;4967153;28;20058;-72
2022/10/26 01:56:49;;;;;;;12.55;4.97;;;21.70;58.10;;;;;;4967742;28;20484;-73
2022/10/26 01:59:52;;;;;;;9.95;4.20;;;21.70;58.00;;;;;;4967367;28;20058;-72
2022/10/26 02:02:59;;;;;;;8.15;4.22;;;21.70;58.00;;;;;;4969366;28;20423;-72
2022/10/26 02:05:31;;;;;;;8.23;4.30;;;21.70;57.90;;;;;;4969358;28;20041;-72
2022/10/26 02:08:30;;;;;;;12.90;4.60;;;21.70;57.90;;;;;;4970979;28;20031;-72
2022/10/26 02:11:02;;;;;;;8.43;4.50;;;21.70;57.80;;;;;;4969502;28;20109;-72
2022/10/26 02:13:36;;;;;;;10.75;4.10;;;21.70;57.80;;;;;;4968247;28;20039;-71
2022/10/26 02:16:15;;;;;;;8.60;4.07;;;21.70;57.80;;;;;;4969471;28;20037;-72
2022/10/26 02:18:45;;;;;;;9.02;4.30;;;21.70;57.80;;;;;;4970483;28;20062;-72
2022/10/26 02:21:17;;;;;;;10.32;3.90;;;21.70;57.80;;;;;;4970696;28;20030;-72
2022/10/26 02:23:46;;;;;;;8.68;3.80;;;21.70;57.70;;;;;;4969759;28;20031;-72
2022/10/26 02:26:15;;;;;;;6.13;3.63;;;21.70;57.60;;;;;;4969332;28;20041;-72
2022/10/26 02:28:46;;;;;;;9.07;3.72;;;21.70;57.70;;;;;;4970603;28;20277;-72
2022/10/26 02:31:13;;;;;;;8.73;3.90;;;21.70;57.60;;;;;;4969282;28;20034;-72
2022/10/26 02:33:45;;;;;;;8.85;4.18;;;21.70;57.60;;;;;;4967904;28;20043;-72
2022/10/26 02:36:15;;;;;;;9.38;3.83;;;21.70;57.60;;;;;;4970315;28;20034;-72
2022/10/26 02:38:42;;;;;;;8.65;3.42;;;21.70;57.50;;;;;;4970438;28;20030;-73
2022/10/26 02:41:11;;;;;;;10.07;4.13;;;21.70;57.60;;;;;;4969164;28;20031;-72
2022/10/26 02:43:44;;;;;;;8.38;3.47;;;21.70;57.60;;;;;;4967849;28;20031;-73
2022/10/26 02:46:14;;;;;;;10.10;4.05;;;21.70;57.50;;;;;;4969254;28;20042;-72
2022/10/26 02:48:40;;;;;;;6.82;3.55;;;21.60;57.50;;;;;;4968097;28;20508;-72
2022/10/26 02:51:17;;;;;;;12.95;4.18;;;21.70;57.70;;;;;;4970290;28;20042;-73
2022/10/26 02:54:33;;;;;;;16.02;4.18;;;21.60;57.70;;;;;;4968854;28;20041;-72
2022/10/26 02:57:03;;;;;;;14.77;4.35;;;21.60;57.60;;;;;;4982706;28;20096;-72
2022/10/26 02:59:31;;;;;;;;;;;21.60;57.60;;;;;;4970405;28;20034;-72
2022/10/26 03:01:57;;;;;;;10.27;3.67;;;21.60;57.50;;;;;;4969750;28;19913;-72
2022/10/26 03:04:33;;;;;;;13.93;4.30;;;21.60;57.50;;;;;;4967787;28;20042;-71
2022/10/26 03:07:00;;;;;;;14.77;4.30;;;21.60;57.50;;;;;;4969965;28;20031;-72
2022/10/26 03:09:26;;;;;;;9.25;4.18;;;21.60;57.50;;;;;;4968497;28;20029;-72
2022/10/26 03:11:52;;;;;;;10.82;3.67;;;21.60;57.40;;;;;;4969350;28;20107;-72
2022/10/26 03:14:18;;;;;;;10.48;3.53;;;21.60;57.40;;;;;;4968273;28;20046;-72
2022/10/26 03:16:44;;;;;;;10.93;3.70;;;21.60;57.40;;;;;;4969838;28;20109;-72
2022/10/26 03:19:10;;;;;;;9.48;3.85;;;21.60;57.40;;;;;;4968353;28;20168;-72
2022/10/26 03:21:35;;;;;;;12.05;3.80;;;21.60;57.50;;;;;;4969680;28;20108;-72
2022/10/26 03:24:01;;;;;;;11.45;3.90;;;21.60;57.40;;;;;;4967223;28;20027;-72
2022/10/26 03:26:27;;;;;;;9.40;3.75;;;21.60;57.30;;;;;;4984556;28;20563;-72
2022/10/26 03:28:53;;;;;;;16.55;3.95;;;21.60;57.20;;;;;;4968217;28;20554;-72
2022/10/26 03:31:19;;;;;;;7.40;3.55;;;21.60;57.20;;;;;;4968554;28;20058;-73
2022/10/26 03:33:44;;;;;;;8.45;3.30;;;21.60;57.30;;;;;;4967355;28;20034;-73
2022/10/26 03:36:10;;;;;;;11.20;3.53;;;21.70;57.30;;;;;;4969205;28;20109;-73
2022/10/26 03:38:36;;;;;;;8.50;3.50;;;21.60;57.20;;;;;;4969417;28;20031;-72
2022/10/26 03:41:02;;;;;;;6.70;3.10;;;21.60;57.20;;;;;;4984168;28;20487;-72
2022/10/26 03:43:28;;;;;;;7.22;3.42;;;21.60;57.20;;;;;;4968595;28;20059;-72
2022/10/26 03:45:53;;;;;;;7.93;3.40;;;21.60;57.20;;;;;;4967823;28;20061;-72
2022/10/26 03:48:19;;;;;;;9.38;2.90;;;21.60;57.20;;;;;;4969194;28;20126;-73
2022/10/26 03:50:45;;;;;;;8.60;3.05;;;21.60;57.10;;;;;;4967884;28;20096;-73
2022/10/26 03:53:10;;;;;;;6.43;3.33;;;21.60;57.20;;;;;;4968640;28;20117;-73
2022/10/26 03:55:36;;;;;;;7.22;3.25;;;21.60;57.10;;;;;;4967395;28;20070;-73
2022/10/26 03:58:02;;;;;;;7.55;3.28;;;21.60;57.10;;;;;;4968244;28;20100;-72
2022/10/26 04:00:28;;;;;;;7.80;3.00;;;21.60;57.10;;;;;;4968884;28;20049;-73
2022/10/26 04:02:58;;;;;;;9.00;3.35;;;21.60;57.10;;;;;;4968342;28;20030;-72
2022/10/26 04:05:26;;;;;;;5.13;2.47;;;21.60;57.10;;;;;;4951492;28;20045;-72
2022/10/26 04:07:56;;;;;;;7.82;3.03;;;21.60;57.10;;;;;;4969415;28;20034;-72
2022/10/26 04:10:23;;;;;;;6.28;2.85;;;21.60;57.10;;;;;;4969334;28;20038;-73
2022/10/26 04:12:49;;;;;;;5.15;2.67;;;21.60;57.10;;;;;;4968277;28;20076;-73
2022/10/26 04:15:17;;;;;;;7.55;2.70;;;21.60;57.10;;;;;;4968777;28;20027;-73
2022/10/26 04:17:42;;;;;;;5.50;2.85;;;21.60;57.10;;;;;;4968672;28;20080;-73
2022/10/26 04:20:09;;;;;;;5.55;2.80;;;21.60;57.00;;;;;;4968797;28;20062;-73
2022/10/26 04:22:35;;;;;;;5.72;2.80;;;21.60;57.10;;;;;;4966899;28;20046;-73
2022/10/26 04:25:02;;;;;;;7.32;2.67;;;21.60;57.00;;;;;;4983468;28;20442;-73
2022/10/26 04:27:28;;;;;;;4.63;2.80;;;21.60;57.00;;;;;;4968259;28;20118;-72
2022/10/26 04:29:53;;;;;;;5.47;2.72;;;21.60;57.00;;;;;;4968684;28;20109;-72
2022/10/26 04:32:19;;;;;;;8.50;2.95;;;21.60;57.00;;;;;;4982993;28;20477;-71
2022/10/26 04:34:45;;;;;;;9.25;2.55;;;21.60;57.00;;;;;;4967070;28;20557;-72
2022/10/26 04:37:11;;;;;;;6.70;2.78;;;21.60;57.00;;;;;;4968177;28;20023;-72
2022/10/26 04:39:36;;;;;;;5.78;2.50;;;21.60;56.90;;;;;;4968484;28;20420;-72
2022/10/26 04:42:02;;;;;;;4.90;2.55;;;21.60;56.90;;;;;;4968215;28;20489;-73
2022/10/26 04:44:28;;;;;;;7.13;2.95;;;21.60;56.80;;;;;;4966655;28;20105;-73
2022/10/26 04:46:54;;;;;;;6.72;2.42;;;21.60;56.90;;;;;;4951054;28;20034;-72
2022/10/26 04:49:19;;;;;;;8.32;2.65;;;21.60;56.70;;;;;;4967294;28;20122;-72
2022/10/26 04:51:45;;;;;;;4.72;2.50;;;21.60;56.90;;;;;;4966934;28;20418;-72
2022/10/26 04:54:11;;;;;;;7.78;3.00;;;21.60;56.80;;;;;;4982546;28;20516;-71
2022/10/26 04:56:37;;;;;;;8.82;3.60;;;21.60;56.70;;;;;;4967129;28;20591;-71
2022/10/26 04:59:03;;;;;;;6.07;2.95;;;21.60;56.60;;;;;;4966350;28;20400;-72
2022/10/26 05:01:30;;;;;;;7.97;2.75;;;21.60;56.70;;;;;;4967289;28;20035;-72
2022/10/26 05:03:56;;;;;;;6.22;2.67;;;21.60;56.70;;;;;;4957417;28;20035;-71
2022/10/26 05:06:22;;;;;;;6.90;2.97;;;21.60;56.60;;;;;;4960215;28;20034;-72
2022/10/26 05:08:48;;;;;;;5.63;2.72;;;21.60;56.60;;;;;;4965806;28;20043;-72
2022/10/26 05:11:14;;;;;;;8.60;3.63;;;21.60;56.60;;;;;;4967469;28;20034;-71
2022/10/26 05:13:40;;;;;;;7.32;3.10;;;21.60;56.70;;;;;;4965704;28;20031;-72
2022/10/26 05:16:06;;;;;;;5.68;2.83;;;21.50;56.60;;;;;;4968048;28;20050;-72
2022/10/26 05:18:31;;;;;;;4.65;3.00;;;21.50;56.60;;;;;;5050113;28;20490;-72
2022/10/26 05:20:57;;;;;;;6.88;2.90;;;21.60;56.60;;;;;;4966562;28;20031;-73
2022/10/26 05:23:23;;;;;;;6.07;2.85;;;21.60;56.70;;;;;;4966147;28;20118;-73
2022/10/26 05:25:49;;;;;;;4.88;2.75;;;21.60;56.70;;;;;;4966617;28;20038;-72
2022/10/26 05:28:16;;;;;;;6.15;2.85;;;21.60;56.50;;;;;;4967401;28;20038;-73
2022/10/26 05:30:44;;;;;;;8.65;3.13;;;21.50;56.50;;;;;;4967780;28;20043;-73
2022/10/26 05:33:11;;;;;;;8.05;3.05;;;21.60;56.50;;;;;;4965946;28;20511;-73
2022/10/26 05:35:37;;;;;;;6.20;3.45;;;21.60;56.60;;;;;;4966019;28;20114;-72
2022/10/26 05:38:16;;;;;;;7.10;3.30;;;21.60;56.50;;;;;;4966337;28;20034;-72
2022/10/26 05:40:49;;;;;;;9.52;2.88;;;21.60;56.50;;;;;;4950185;28;20488;-73
2022/10/26 05:43:16;;;;;;;7.30;3.10;;;21.60;56.50;;;;;;4966004;28;20030;-73
2022/10/26 05:45:42;;;;;;;5.20;2.75;;;21.60;56.50;;;;;;4967058;28;20038;-73
2022/10/26 05:48:08;;;;;;;6.82;2.90;;;21.60;56.50;;;;;;4967690;28;20393;-73
2022/10/26 05:50:34;;;;;;;4.80;2.42;;;21.60;56.50;;;;;;4965609;28;20400;-72
2022/10/26 05:52:59;;;;;;;6.90;3.17;;;21.60;56.60;;;;;;4980698;28;20055;-72
2022/10/26 05:55:25;;;;;;;9.63;2.97;;;21.60;56.50;;;;;;4967366;28;20528;-73
2022/10/26 05:57:52;;;;;;;8.98;2.83;;;21.70;56.40;;;;;;4967821;28;20113;-73
2022/10/26 06:00:26;;;;;;;7.30;3.45;;;21.60;56.50;;;;;;4966889;28;20096;-72
2022/10/26 06:02:57;;;;;;;4.85;2.72;;;21.60;56.30;;;;;;4966871;28;20160;-72
2022/10/26 06:05:26;;;;;;;7.57;3.28;;;21.60;56.30;;;;;;4966315;28;20062;-73
2022/10/26 06:07:52;;;;;;;7.70;3.43;;;21.60;56.20;;;;;;4967157;28;20038;-73
2022/10/26 06:10:18;;;;;;;12.40;4.88;;;21.60;56.20;;;;;;4965978;28;20408;-73
2022/10/26 06:12:45;;;;;;;10.73;4.25;;;21.60;56.20;;;;;;4960489;28;20027;-72
2022/10/26 06:15:17;;;;;;;14.88;4.20;;;21.60;56.20;;;;;;4949738;28;20035;-73
2022/10/26 06:18:14;;;;;;;9.32;4.30;;;21.60;56.10;;;;;;4963182;28;20429;-72
2022/10/26 06:21:02;;;;;;;8.80;4.00;;;21.60;56.20;;;;;;4952376;28;20475;-73
2022/10/26 06:23:56;;;;;;;7.15;3.95;;;21.60;56.20;;;;;;4964354;28;20392;-72
2022/10/26 06:26:50;;;;;;;10.65;4.90;;;21.50;56.00;;;;;;4962889;28;20042;-75
2022/10/26 06:29:29;;;;;;;20.80;8.27;;;21.60;56.00;;;;;;4981887;28;20027;-75
2022/10/26 06:31:55;;;;;;;21.05;7.93;;;21.40;53.50;;;;;;4962442;28;20053;-73
2022/10/26 06:34:26;;;;;;;17.27;6.53;;;21.20;54.30;;;;;;4966467;28;20491;-74
2022/10/26 06:36:52;;;;;;;15.32;6.53;;;21.10;52.40;;;;;;4966962;28;20392;-74
2022/10/26 06:39:18;;;;;;;12.13;5.53;;;21.00;52.90;;;;;;4966908;28;20027;-74
2022/10/26 06:41:44;;;;;;;11.20;5.50;;;20.90;52.60;;;;;;4965289;28;20077;-74
2022/10/26 06:44:21;;;;;;;14.25;5.32;;;20.90;52.50;;;;;;4966644;28;20117;-74
2022/10/26 06:46:50;;;;;;;16.48;4.93;;;20.80;52.60;;;;;;4963082;28;20510;-73
2022/10/26 06:49:28;;;;;;;17.98;5.05;;;20.80;52.50;;;;;;4970227;28;20031;-72
2022/10/26 06:51:57;;;;;;;21.83;5.10;;;20.90;53.50;;;;;;4968070;28;20517;-74
2022/10/26 06:54:39;;;;;;;20.08;4.97;;;21.00;53.90;;;;;;4968421;28;20035;-73
2022/10/26 06:57:09;;;;;;;14.20;5.10;;;21.10;54.50;;;;;;4968849;28;20027;-73
2022/10/26 06:59:40;;;;;;;21.30;4.93;;;21.30;54.50;;;;;;4969736;28;20050;-74
2022/10/26 07:02:08;;;;;;;22.55;5.15;;;21.40;54.90;;;;;;4998468;28;20028;-74
2022/10/26 07:04:34;;;;;;;13.18;5.22;;;21.50;54.70;;;;;;5021287;28;20024;-73
2022/10/26 07:07:00;;;;;;;13.00;4.55;;;21.50;54.80;;;;;;5010949;22;20420;-73
2022/10/26 07:09:26;;;;;;;25.20;14.98;;;21.50;54.30;;;;;;4971819;28;20027;-72
2022/10/26 07:11:51;;;;;;;28.85;15.50;;;21.40;52.80;;;;;;4988039;28;20105;-72
2022/10/26 07:14:17;;;;;;;26.08;14.38;;;21.20;52.70;;;;;;4982323;28;20057;-73
2022/10/26 07:16:43;;;;;;;23.58;13.30;;;21.20;54.30;;;;;;4984170;28;20084;-74
2022/10/26 07:19:09;;;;;;;28.00;12.65;;;21.30;54.00;;;;;;4962097;28;20488;-75
2022/10/26 07:21:35;;;;;;;32.92;12.45;;;21.30;55.20;;;;;;4969952;28;20384;-73
2022/10/26 07:24:00;;;;;;;26.30;11.43;;;21.40;55.70;;;;;;4962513;28;20034;-74
2022/10/26 07:26:26;;;;;;;21.63;10.80;;;21.40;55.20;;;;;;4970086;28;20035;-73
2022/10/26 07:28:52;;;;;;;22.60;10.90;;;21.40;55.00;;;;;;4971599;28;20034;-74
2022/10/26 07:31:18;;;;;;;24.13;10.43;;;21.50;55.30;;;;;;4971753;28;20069;-73
2022/10/26 07:33:45;;;;;;;22.05;10.80;;;21.50;55.40;;;;;;4969859;28;20073;-73
2022/10/26 07:36:11;;;;;;;19.63;10.70;;;21.50;55.50;;;;;;4971652;28;20047;-74
2022/10/26 07:38:37;;;;;;;18.30;9.55;;;21.50;55.60;;;;;;4970632;28;20033;-74
2022/10/26 07:41:04;;;;;;;21.35;10.57;;;21.50;55.70;;;;;;4969992;28;20118;-75
2022/10/26 07:43:30;;;;;;;18.63;10.57;;;21.50;55.80;;;;;;4970130;28;20073;-73
2022/10/26 07:45:56;;;;;;;18.75;9.02;;;21.60;56.00;;;;;;4984378;28;20058;-73
2022/10/26 07:48:32;;;;;;;21.15;9.60;;;21.60;56.10;;;;;;4951865;29;20031;-75
2022/10/26 07:51:06;;;;;;;17.70;9.40;;;21.60;56.10;;;;;;4951846;29;20031;-75
2022/10/26 07:54:10;;;;;;;22.13;9.32;;;21.60;56.20;;;;;;4959048;28;20042;-74
2022/10/26 07:56:36;;;;;;;19.13;9.77;;;21.60;58.00;;;;;;4985457;28;20114;-74
2022/10/26 07:59:05;;;;;;;25.67;9.57;;;21.70;57.90;;;;;;4962871;28;20106;-72
2022/10/26 08:01:31;;;;;;;24.80;9.68;;;21.70;58.50;;;;;;4970068;28;20488;-73
2022/10/26 08:03:56;;;;;;;24.75;10.60;;;21.70;60.60;;;;;;4969625;28;20106;-75
2022/10/26 08:06:23;;;;;;;19.05;9.57;;;21.70;60.10;;;;;;4961532;28;20499;-73
2022/10/26 08:08:49;;;;;;;22.75;9.75;;;21.70;59.90;;;;;;4971377;28;20045;-74
2022/10/26 08:11:15;;;;;;;19.23;9.38;;;21.80;60.10;;;;;;4970078;28;20046;-74
2022/10/26 08:13:41;;;;;;;17.73;9.00;;;21.80;60.30;;;;;;4969756;28;20053;-74
2022/10/26 08:16:10;;;;;;;20.15;9.07;;;21.80;60.50;;;;;;4985716;28;20034;-74
2022/10/26 08:18:38;;;;;;;16.75;9.13;;;21.80;60.60;;;;;;4953996;28;20403;-74
2022/10/26 08:21:08;;;;;;;18.67;9.25;;;21.80;61.00;;;;;;4970988;28;20034;-75
2022/10/26 08:23:34;;;;;;;20.42;9.00;;;21.80;61.00;;;;;;4969837;28;20117;-74
2022/10/26 08:26:01;;;;;;;20.00;8.55;;;21.80;61.70;;;;;;4969743;28;20117;-74
2022/10/26 08:28:27;;;;;;;19.92;8.95;;;21.80;62.10;;;;;;4971097;28;20038;-74
2022/10/26 08:30:54;;;;;;;17.92;8.60;;;21.80;62.50;;;;;;4970830;28;20117;-74
2022/10/26 08:33:20;;;;;;;16.17;8.57;;;21.80;63.20;;;;;;4970610;28;20434;-74
2022/10/26 08:35:46;;;;;;;17.05;9.10;;;21.80;63.20;;;;;;4970844;28;20023;-74
2022/10/26 08:38:11;;;;;;;19.70;9.05;;;21.80;63.50;;;;;;4970851;28;20095;-75
2022/10/26 08:40:40;;;;;;;22.67;8.80;;;21.80;63.80;;;;;;4971507;28;20023;-74
2022/10/26 08:43:12;;;;;;;16.45;8.02;;;21.80;64.60;;;;;;4985663;28;20503;-73
2022/10/26 08:45:49;;;;;;;21.30;9.00;;;21.80;63.60;;;;;;4970905;28;20446;-74
2022/10/26 08:48:20;;;;;;;15.55;8.43;;;21.80;64.30;;;;;;4969442;28;20038;-74
2022/10/26 08:50:55;;;;;;;16.60;8.30;;;21.80;65.20;;;;;;5054840;28;20121;-74
2022/10/26 08:53:51;;;;;;;15.85;8.70;;;21.80;64.80;;;;;;4970445;28;20097;-73
2022/10/26 08:56:24;;;;;;;16.95;8.27;;;21.80;64.30;;;;;;4970340;28;20398;-74
2022/10/26 08:59:00;;;;;;;19.85;8.38;;;21.80;64.90;;;;;;4969328;28;20026;-73
2022/10/26 09:01:29;;;;;;;15.75;8.18;;;21.80;64.90;;;;;;4969126;28;20054;-74
2022/10/26 09:03:56;;;;;;;15.93;8.10;;;21.80;65.20;;;;;;4968978;28;20171;-73
2022/10/26 09:06:56;;;;;;;13.77;7.80;;;21.80;65.20;;;;;;4969219;28;20027;-75
2022/10/26 09:09:38;;;;;;;;;;;21.80;64.50;;;;;;4969567;28;20042;-74
2022/10/26 09:12:36;;;;;;;15.05;7.72;;;21.80;65.10;;;;;;4969049;28;20440;-74
2022/10/26 09:15:04;;;;;;;14.57;7.97;;;21.80;65.20;;;;;;4968917;28;20049;-74
2022/10/26 09:18:05;;;;;;;16.60;8.20;;;21.80;65.20;;;;;;4970108;28;20030;-74
2022/10/26 09:20:47;;;;;;;15.40;8.18;;;21.80;65.10;;;;;;4985488;28;20488;-75
2022/10/26 09:23:30;;;;;;;16.42;8.35;;;21.80;65.50;;;;;;4969701;28;20030;-74
2022/10/26 09:26:00;;;;;;;14.20;7.95;;;21.80;65.20;;;;;;4985179;28;20035;-74
2022/10/26 09:28:32;;;;;;;14.57;7.72;;;21.80;65.30;;;;;;4968763;28;20023;-74
2022/10/26 09:31:00;;;;;;;16.27;8.35;;;21.80;65.40;;;;;;4968932;28;20031;-74
2022/10/26 09:33:29;;;;;;;15.38;7.85;;;21.90;65.30;;;;;;4969563;28;20712;-75
2022/10/26 09:36:00;;;;;;;13.90;7.82;;;21.80;65.30;;;;;;4968713;28;20035;-75
2022/10/26 09:38:46;;;;;;;15.27;7.35;;;21.80;65.20;;;;;;4969964;28;20034;-74
2022/10/26 09:41:30;;;;;;;16.23;7.78;;;21.90;65.30;;;;;;4968647;28;20492;-75
2022/10/26 09:44:04;;;;;;;14.85;7.80;;;21.90;65.40;;;;;;4969837;28;20034;-75
2022/10/26 09:46:39;;;;;;;13.00;7.60;;;21.90;65.40;;;;;;4969777;28;20165;-74
2022/10/26 09:49:07;;;;;;;14.80;7.95;;;21.80;65.40;;;;;;4969834;28;20039;-74
2022/10/26 09:51:41;;;;;;;13.95;7.68;;;21.90;65.50;;;;;;4968451;28;20043;-74
2022/10/26 09:54:15;;;;;;;13.68;7.50;;;21.90;65.60;;;;;;4984567;28;20037;-75
2022/10/26 09:56:46;;;;;;;12.70;6.78;;;21.80;65.70;;;;;;4968318;28;20470;-75
2022/10/26 09:59:14;;;;;;;14.15;7.38;;;21.90;66.20;;;;;;4985218;28;20476;-75
2022/10/26 10:01:40;;;;;;;12.68;7.18;;;21.90;66.10;;;;;;4969561;28;20029;-73
2022/10/26 10:04:12;;;;;;;13.50;6.80;;;21.90;66.60;;;;;;4968530;28;20081;-75
2022/10/26 10:06:42;;;;;;;12.73;6.72;;;21.90;67.00;;;;;;4969428;28;20031;-74
2022/10/26 10:09:20;;;;;;;12.98;7.28;;;21.90;66.80;;;;;;4968250;28;20168;-74
2022/10/26 10:11:56;;;;;;;13.68;7.32;;;21.90;67.30;;;;;;4969516;28;20118;-75
2022/10/26 10:14:25;;;;;;;11.90;6.68;;;21.90;67.20;;;;;;4968518;28;20105;-75
2022/10/26 10:16:54;;;;;;;14.17;7.30;;;21.90;66.30;;;;;;4968257;28;20471;-75
2022/10/26 10:19:25;;;;;;;12.60;7.13;;;21.90;67.20;;;;;;4969579;28;20395;-75
2022/10/26 10:21:54;;;;;;;13.40;7.18;;;21.90;67.20;;;;;;5053519;28;20031;-75
2022/10/26 10:24:26;;;;;;;10.50;6.13;;;21.80;67.40;;;;;;4971491;28;20042;-74
2022/10/26 10:27:16;;;;;;;13.55;7.35;;;21.90;67.30;;;;;;4972765;28;20480;-74
2022/10/26 10:29:44;;;;;;;12.80;6.78;;;21.90;67.00;;;;;;4976394;28;20049;-74
2022/10/26 10:32:21;;;;;;;11.00;6.75;;;21.90;67.10;;;;;;4972251;28;20042;-74
2022/10/26 10:34:49;;;;;;;12.43;7.25;;;21.90;67.00;;;;;;4972671;28;20023;-75
2022/10/26 10:37:26;;;;;;;11.60;6.72;;;21.90;67.00;;;;;;4972453;28;20027;-75
2022/10/26 10:40:00;;;;;;;11.70;6.63;;;21.90;67.10;;;;;;4972535;28;20031;-73
2022/10/26 10:42:31;;;;;;;11.38;6.65;;;21.90;67.10;;;;;;4987438;28;20476;-73
2022/10/26 10:44:59;;;;;;;12.23;6.55;;;21.90;67.10;;;;;;4971373;28;20514;-73
2022/10/26 10:47:34;;;;;;;12.73;6.85;;;21.90;66.90;;;;;;4972385;28;20456;-74
2022/10/26 10:50:14;;;;;;;13.93;7.28;;;21.90;67.10;;;;;;4971325;28;20396;-74
2022/10/26 10:52:40;;;;;;;13.57;6.70;;;21.90;67.00;;;;;;4972197;28;20027;-72
2022/10/26 10:55:12;;;;;;;13.48;6.47;;;21.90;67.00;;;;;;4972468;28;20038;-74
2022/10/26 10:57:56;;;;;;;10.70;6.28;;;21.90;67.00;;;;;;4972914;28;20023;-75
2022/10/26 11:00:23;;;;;;;13.43;7.07;;;21.90;67.30;;;;;;4971135;28;20031;-74
2022/10/26 11:03:20;;;;;;;10.50;6.28;;;21.90;67.60;;;;;;4938929;28;20514;-74
2022/10/26 11:06:05;;;;;;;12.43;6.90;;;21.90;67.80;;;;;;4970474;28;20034;-74
2022/10/26 11:08:37;;;;;;;12.10;5.80;;;21.90;68.10;;;;;;4977215;28;20399;-77
2022/10/26 11:11:27;;;;;;;14.30;6.80;;;21.70;62.80;;;;;;4953234;28;20050;-76
2022/10/26 11:14:17;;;;;;;13.63;5.25;;;21.40;61.20;;;;;;4959305;28;20035;-77
2022/10/26 11:16:50;;;;;;;11.10;4.78;;;21.20;59.80;;;;;;4983373;28;20027;-76
2022/10/26 11:19:32;;;;;;;14.40;4.18;;;20.90;58.20;;;;;;5010104;28;20385;-76
2022/10/26 11:21:59;;;;;;;7.82;3.88;;;20.80;58.40;;;;;;5025946;28;20029;-76
2022/10/26 11:24:40;;;;;;;13.30;3.72;;;20.70;58.20;;;;;;5029215;28;20522;-77
2022/10/26 11:27:22;;;;;;;22.58;13.90;;;20.60;58.00;;;;;;4960811;28;20051;-79
2022/10/26 11:29:58;;;;;;;28.50;16.70;;;20.60;57.90;;;;;;4963626;28;20509;-77
2022/10/26 11:32:45;;;;;;;23.05;14.73;;;20.50;57.00;;;;;;4955986;28;20046;-73
2022/10/26 11:35:17;;;;;;;20.50;12.77;;;20.60;57.90;;;;;;4969793;28;20180;-73
2022/10/26 11:38:02;;;;;;;20.80;11.82;;;20.80;58.60;;;;;;4960316;28;20388;-73
2022/10/26 11:40:38;;;;;;;20.23;11.57;;;21.00;58.30;;;;;;4978874;28;20050;-72
2022/10/26 11:43:18;;;;;;;19.48;10.35;;;21.20;58.80;;;;;;4976372;28;20115;-73
2022/10/26 11:46:03;;;;;;;20.90;11.93;;;21.30;59.20;;;;;;4967717;28;20088;-72
2022/10/26 11:48:43;;;;;;;22.63;11.40;;;21.40;59.40;;;;;;4961452;28;20049;-74
2022/10/26 11:51:50;;;;;;;19.15;10.77;;;21.50;59.70;;;;;;4967839;28;20508;-74
2022/10/26 11:54:20;;;;;;;35.20;14.38;;;21.60;60.20;;;;;;4971661;28;20037;-74
2022/10/26 11:56:52;;;;;;;89.75;22.75;;;21.70;61.10;;;;;;4971285;28;20566;-72
2022/10/26 11:59:21;;;;;;;149.93;39.22;;;21.80;61.60;;;;;;4964008;28;20088;-71
2022/10/26 12:01:59;;;;;;;189.50;46.37;;;21.90;62.90;;;;;;4971324;28;20448;-72
2022/10/26 12:04:34;;;;;;;170.38;47.55;;;22.00;64.40;;;;;;4971254;28;20356;-73
2022/10/26 12:07:03;;;;;;;158.07;45.47;;;22.10;66.50;;;;;;4970973;28;20054;-73
2022/10/26 12:09:33;;;;;;;126.85;39.58;;;22.20;67.10;;;;;;4971291;28;20054;-72
2022/10/26 12:12:10;;;;;;;131.50;44.45;;;22.20;68.40;;;;;;4970742;28;20031;-73
2022/10/26 12:14:43;;;;;;;121.15;40.50;;;22.20;70.40;;;;;;4971041;28;20499;-74
2022/10/26 12:17:35;;;;;;;58.63;20.33;;;22.20;69.50;;;;;;4986116;28;20042;-73
2022/10/26 12:20:36;;;;;;;31.75;10.18;;;22.10;61.90;;;;;;4965936;28;20035;-72
2022/10/26 12:23:03;;;;;;;16.42;6.20;;;22.00;59.50;;;;;;4971264;28;20051;-71
2022/10/26 12:25:29;;;;;;;19.90;6.20;;;21.80;58.70;;;;;;4964359;28;20031;-72
2022/10/26 12:27:57;;;;;;;22.60;6.55;;;21.70;58.40;;;;;;4949254;28;20031;-72
2022/10/26 12:30:24;;;;;;;11.18;4.47;;;21.60;60.60;;;;;;4949761;28;20104;-72
2022/10/26 12:32:59;;;;;;;12.52;5.00;;;21.60;58.00;;;;;;4948091;29;20429;-72
2022/10/26 12:35:33;;;;;;;7.57;3.80;;;21.50;57.60;;;;;;4948244;29;20034;-72
2022/10/26 12:38:01;;;;;;;12.65;3.85;;;21.40;57.10;;;;;;4964804;28;20050;-72
2022/10/26 12:40:33;;;;;;;9.45;3.25;;;21.40;57.30;;;;;;4948993;29;20401;-72
2022/10/26 12:43:25;;;;;;;7.88;2.97;;;21.40;57.40;;;;;;4950048;29;20461;-73
2022/10/26 12:46:16;;;;;;;13.05;3.42;;;21.40;58.60;;;;;;4958640;28;20489;-72
2022/10/26 12:48:52;;;;;;;8.50;2.90;;;21.40;57.90;;;;;;4950267;28;20041;-73
2022/10/26 12:51:20;;;;;;;10.20;2.80;;;21.50;57.70;;;;;;4948872;28;20986;-72
2022/10/26 12:54:15;;;;;;;7.38;2.85;;;21.50;58.20;;;;;;4963969;28;20445;-73
2022/10/26 12:56:53;;;;;;;9.80;2.70;;;21.50;57.70;;;;;;4978518;28;20042;-73
2022/10/26 12:59:41;;;;;;;5.65;2.40;;;21.50;57.90;;;;;;4965648;28;20423;-73
2022/10/26 13:02:25;;;;;;;9.45;2.60;;;21.60;58.30;;;;;;4965636;28;20034;-74